Time;durP1;ratioP1;P1;durP2;ratioP2;P2;SDS_P1;SDS_P2;PMS_P1;PMS_P2;Temp;Humidity;BMP_temperature;BMP_pressure;BME280_temperature;BME280_humidity;BME280_pressure;Samples;Min_cycle;Max_cycle;Signal;HPM_P1;HPM_P2
2022/05/26 00:00:41;;;;;;;6.65;1.98;;;40.40;17.20;;;;;;5007300;28;20113;-66
2022/05/26 00:03:07;;;;;;;9.68;1.75;;;40.20;16.50;;;;;;5050870;23;20500;-68
2022/05/26 00:05:33;;;;;;;15.73;2.10;;;40.20;16.70;;;;;;5010577;28;20394;-67
2022/05/26 00:08:00;;;;;;;15.48;2.38;;;40.20;16.60;;;;;;5009496;28;20026;-68
2022/05/26 00:10:26;;;;;;;20.75;2.35;;;40.30;16.90;;;;;;5012153;28;20111;-67
2022/05/26 00:12:53;;;;;;;13.52;2.20;;;40.20;16.70;;;;;;5010442;28;20026;-69
2022/05/26 00:15:19;;;;;;;11.77;2.30;;;40.00;16.70;;;;;;5009638;28;20506;-70
2022/05/26 00:17:46;;;;;;;12.60;2.10;;;40.10;17.00;;;;;;4996850;28;20030;-70
2022/05/26 00:20:12;;;;;;;19.48;2.65;;;40.00;16.70;;;;;;5010856;28;20056;-68
2022/05/26 00:22:39;;;;;;;22.52;2.88;;;39.90;16.80;;;;;;5011589;28;20458;-69
2022/05/26 00:25:06;;;;;;;25.75;2.63;;;39.90;17.00;;;;;;5025631;28;20363;-70
2022/05/26 00:27:32;;;;;;;22.17;2.50;;;39.80;16.70;;;;;;5012184;28;20507;-71
2022/05/26 00:29:58;;;;;;;19.35;3.00;;;39.70;17.10;;;;;;5015255;28;20033;-69
2022/05/26 00:32:25;;;;;;;14.45;2.10;;;39.70;17.10;;;;;;5027631;28;20062;-69
2022/05/26 00:34:51;;;;;;;13.15;2.30;;;39.60;17.40;;;;;;5011285;28;20044;-69
2022/05/26 00:37:18;;;;;;;21.30;3.13;;;39.50;17.00;;;;;;5012255;28;20533;-70
2022/05/26 00:39:44;;;;;;;20.13;2.97;;;39.40;17.90;;;;;;5013180;28;20107;-70
2022/05/26 00:42:11;;;;;;;14.30;2.60;;;39.50;17.30;;;;;;5008834;28;20037;-68
2022/05/26 00:44:38;;;;;;;14.80;2.20;;;39.30;17.30;;;;;;5029505;28;20042;-71
2022/05/26 00:47:10;;;;;;;28.30;3.22;;;39.10;17.30;;;;;;5027137;28;20049;-69
2022/05/26 00:49:47;;;;;;;20.60;2.53;;;39.00;17.50;;;;;;5011363;28;20036;-73
2022/05/26 00:52:22;;;;;;;388.35;20.50;;;39.00;17.60;;;;;;5010689;28;20040;-73
2022/05/26 00:54:51;;;;;;;28.58;3.85;;;39.00;18.40;;;;;;5029009;28;20053;-73
2022/05/26 00:57:31;;;;;;;19.55;3.20;;;38.90;17.70;;;;;;5029039;28;20038;-72
2022/05/26 01:00:11;;;;;;;14.35;2.22;;;38.90;17.50;;;;;;5041322;22;20239;-75
2022/05/26 01:02:45;;;;;;;21.75;2.83;;;38.80;17.70;;;;;;5028025;28;20049;-74
2022/05/26 01:05:27;;;;;;;18.73;3.08;;;38.70;17.80;;;;;;5028231;28;20057;-69
2022/05/26 01:07:56;;;;;;;15.93;2.28;;;38.50;17.70;;;;;;5031027;28;20051;-73
2022/05/26 01:10:23;;;;;;;22.15;2.25;;;38.40;17.80;;;;;;5049013;28;20068;-71
2022/05/26 01:12:49;;;;;;;16.67;2.10;;;38.30;17.90;;;;;;5033590;28;20044;-74
2022/05/26 01:15:23;;;;;;;26.45;2.20;;;38.20;18.10;;;;;;5032561;28;20071;-73
2022/05/26 01:18:05;;;;;;;16.73;2.55;;;38.10;18.30;;;;;;5013714;28;20115;-72
2022/05/26 01:20:40;;;;;;;22.45;3.10;;;38.00;18.40;;;;;;5028712;28;20048;-71
2022/05/26 01:23:44;;;;;;;17.58;2.60;;;37.90;18.50;;;;;;5028547;28;20043;-70
2022/05/26 01:26:16;;;;;;;26.92;2.85;;;37.80;18.90;;;;;;5027374;28;20051;-71
2022/05/26 01:29:19;;;;;;;21.40;2.50;;;37.70;18.90;;;;;;5026761;28;20092;-69
2022/05/26 01:31:55;;;;;;;14.98;2.55;;;37.60;19.00;;;;;;5026582;28;20045;-70
2022/05/26 01:34:59;;;;;;;18.48;2.50;;;37.50;19.20;;;;;;5026257;28;20078;-67
2022/05/26 01:37:40;;;;;;;22.50;3.10;;;37.40;19.20;;;;;;5015887;28;20049;-73
2022/05/26 01:40:13;;;;;;;31.83;3.65;;;37.40;19.20;;;;;;5029326;28;20407;-72
2022/05/26 01:43:15;;;;;;;18.50;2.65;;;37.30;19.10;;;;;;5031885;28;20049;-71
2022/05/26 01:46:06;;;;;;;27.17;3.10;;;37.40;19.00;;;;;;5033069;28;20461;-72
2022/05/26 01:48:57;;;;;;;30.83;3.40;;;37.60;19.00;;;;;;5030121;28;20047;-69
2022/05/26 01:51:26;;;;;;;21.90;2.65;;;37.40;19.30;;;;;;5030074;28;20041;-72
2022/05/26 01:54:11;;;;;;;32.47;2.67;;;37.00;19.40;;;;;;5031393;28;20073;-73
2022/05/26 01:56:46;;;;;;;30.30;3.63;;;36.80;19.70;;;;;;5033264;28;20073;-71
2022/05/26 01:59:19;;;;;;;54.55;5.32;;;36.70;20.10;;;;;;5035245;28;20086;-71
2022/05/26 02:02:00;;;;;;;34.90;3.65;;;36.60;20.20;;;;;;5036833;28;20089;-67
2022/05/26 02:04:37;;;;;;;35.25;4.25;;;36.40;20.60;;;;;;5027270;28;20646;-69
2022/05/26 02:07:24;;;;;;;24.08;2.97;;;36.40;20.80;;;;;;5026880;28;20055;-73
2022/05/26 02:09:53;;;;;;;32.47;4.05;;;36.30;20.50;;;;;;5028781;28;20099;-69
2022/05/26 02:12:25;;;;;;;27.45;3.42;;;36.00;21.00;;;;;;5028004;28;20072;-68
2022/05/26 02:14:56;;;;;;;46.30;5.20;;;36.00;21.20;;;;;;5028958;28;20090;-68
2022/05/26 02:17:33;;;;;;;87.82;7.40;;;35.90;21.30;;;;;;5042663;28;20048;-68
2022/05/26 02:20:12;;;;;;;28.38;5.70;;;35.80;21.50;;;;;;5027314;28;20059;-69
2022/05/26 02:22:51;;;;;;;33.67;5.13;;;35.60;21.70;;;;;;5028342;28;20511;-68
2022/05/26 02:25:21;;;;;;;26.50;4.15;;;35.60;21.90;;;;;;5028504;28;20065;-69
2022/05/26 02:27:52;;;;;;;131.55;10.00;;;35.50;22.20;;;;;;5028878;28;20057;-68
2022/05/26 02:30:18;;;;;;;26.05;4.50;;;35.30;22.70;;;;;;5028826;28;20414;-67
2022/05/26 02:32:52;;;;;;;23.52;4.57;;;35.10;22.90;;;;;;5009904;28;20210;-66
2022/05/26 02:35:29;;;;;;;44.17;4.85;;;35.00;23.20;;;;;;5028540;28;20157;-68
2022/05/26 02:38:06;;;;;;;32.80;3.70;;;35.00;23.20;;;;;;5029021;28;20051;-68
2022/05/26 02:40:33;;;;;;;25.60;4.13;;;34.90;23.60;;;;;;5027563;28;20057;-67
2022/05/26 02:43:13;;;;;;;27.45;4.00;;;34.80;23.70;;;;;;5028634;28;20419;-67
2022/05/26 02:46:01;;;;;;;36.90;3.88;;;34.70;23.80;;;;;;5026899;28;20442;-67
2022/05/26 02:48:40;;;;;;;30.17;4.63;;;34.60;24.00;;;;;;5026931;28;20100;-68
2022/05/26 02:51:18;;;;;;;34.83;4.22;;;34.50;24.20;;;;;;5027871;28;20059;-67
2022/05/26 02:54:15;;;;;;;56.78;4.97;;;34.40;24.20;;;;;;5027254;28;20161;-70
2022/05/26 02:57:09;;;;;;;31.80;4.43;;;34.40;24.40;;;;;;5025679;28;20067;-67
2022/05/26 02:59:45;;;;;;;34.35;4.13;;;34.40;24.40;;;;;;5027060;28;20451;-68
2022/05/26 03:02:25;;;;;;;20.60;4.27;;;34.20;24.50;;;;;;5027734;28;20068;-68
2022/05/26 03:05:15;;;;;;;22.85;4.03;;;34.00;24.80;;;;;;5025126;28;20391;-67
2022/05/26 03:07:45;;;;;;;37.08;3.78;;;34.00;25.00;;;;;;5023691;28;20071;-64
2022/05/26 03:10:11;;;;;;;24.60;3.35;;;33.90;25.20;;;;;;5027275;28;20082;-65
2022/05/26 03:12:38;;;;;;;33.85;4.53;;;33.80;25.20;;;;;;5028005;28;20108;-65
2022/05/26 03:15:06;;;;;;;29.65;5.22;;;33.70;25.10;;;;;;5026594;28;20205;-65
2022/05/26 03:17:33;;;;;;;25.20;3.80;;;33.60;25.30;;;;;;5027559;28;20076;-66
2022/05/26 03:20:00;;;;;;;23.95;4.13;;;33.60;25.70;;;;;;5010267;28;20104;-65
2022/05/26 03:22:26;;;;;;;45.53;4.60;;;33.50;25.40;;;;;;5028390;28;20163;-65
2022/05/26 03:24:53;;;;;;;33.90;4.07;;;33.40;25.60;;;;;;5027627;28;20065;-65
2022/05/26 03:27:20;;;;;;;32.92;3.35;;;33.40;25.70;;;;;;5026520;28;20086;-66
2022/05/26 03:29:46;;;;;;;37.33;4.63;;;33.30;25.70;;;;;;5026747;28;20077;-65
2022/05/26 03:32:13;;;;;;;35.40;4.93;;;33.20;25.80;;;;;;5026792;28;20071;-67
2022/05/26 03:42:54;;;;;;;35.63;3.80;;;33.00;25.80;;;;;;5028336;28;20155;-67
2022/05/26 03:45:23;;;;;;;39.17;4.30;;;33.00;25.90;;;;;;5026683;28;20105;-65
2022/05/26 03:47:50;;;;;;;31.75;4.05;;;32.90;26.10;;;;;;5027161;28;20074;-66
2022/05/26 03:50:17;;;;;;;35.03;4.97;;;32.80;26.10;;;;;;5009855;28;20099;-67
2022/05/26 03:52:43;;;;;;;35.28;4.10;;;32.80;26.30;;;;;;5027730;28;20081;-67
2022/05/26 03:55:10;;;;;;;44.50;3.75;;;32.70;26.30;;;;;;5027110;28;20170;-66
2022/05/26 03:57:37;;;;;;;61.00;4.55;;;32.60;26.40;;;;;;5026587;28;20085;-66
2022/05/26 04:00:04;;;;;;;47.17;4.50;;;32.60;26.50;;;;;;5026864;28;20627;-67
2022/05/26 04:02:30;;;;;;;44.10;4.30;;;32.50;26.70;;;;;;5030631;28;20103;-68
2022/05/26 04:04:58;;;;;;;46.33;5.30;;;32.50;26.80;;;;;;5029337;28;20092;-65
2022/05/26 04:07:24;;;;;;;67.32;6.65;;;32.40;26.80;;;;;;5026432;28;20594;-66
2022/05/26 04:09:51;;;;;;;60.67;5.38;;;32.40;27.00;;;;;;5043584;22;20430;-65
2022/05/26 04:12:18;;;;;;;65.20;5.45;;;32.30;27.00;;;;;;5068431;28;20086;-66
2022/05/26 04:14:44;;;;;;;44.63;4.05;;;32.30;27.00;;;;;;5070109;28;20126;-67
2022/05/26 04:17:11;;;;;;;49.80;5.70;;;32.20;27.10;;;;;;5052995;28;20111;-65
2022/05/26 04:19:41;;;;;;;36.15;4.63;;;32.20;27.30;;;;;;5069834;28;20189;-65
2022/05/26 04:22:18;;;;;;;49.75;4.70;;;32.10;27.40;;;;;;5054041;28;20606;-66
2022/05/26 04:24:50;;;;;;;37.92;4.22;;;32.10;27.50;;;;;;5069653;28;20088;-65
2022/05/26 04:27:19;;;;;;;38.33;4.60;;;32.00;27.50;;;;;;5070416;28;20150;-67
2022/05/26 04:29:46;;;;;;;47.85;5.32;;;32.00;27.50;;;;;;5052133;28;20448;-68
2022/05/26 04:32:13;;;;;;;51.45;4.80;;;32.00;27.60;;;;;;5069792;28;20071;-65
2022/05/26 04:34:40;;;;;;;40.53;4.50;;;31.90;27.60;;;;;;5071076;28;20171;-65
2022/05/26 04:37:07;;;;;;;45.13;4.70;;;31.80;27.80;;;;;;5069104;28;20111;-66
2022/05/26 04:39:34;;;;;;;47.85;4.97;;;31.80;27.80;;;;;;5069685;28;20091;-66
2022/05/26 04:42:03;;;;;;;45.55;5.65;;;31.80;27.80;;;;;;5069868;28;20128;-65
2022/05/26 04:44:32;;;;;;;46.13;6.78;;;31.80;27.90;;;;;;5068644;28;20072;-64
2022/05/26 04:46:59;;;;;;;48.05;8.13;;;31.70;27.90;;;;;;5069130;28;20072;-65
2022/05/26 04:49:26;;;;;;;58.28;10.38;;;31.60;27.90;;;;;;5068997;28;20068;-66
2022/05/26 04:51:54;;;;;;;50.95;14.23;;;31.60;28.10;;;;;;5068839;28;20215;-65
2022/05/26 04:54:21;;;;;;;47.53;12.50;;;31.50;28.00;;;;;;5068401;28;20190;-63
2022/05/26 04:56:47;;;;;;;50.15;9.60;;;31.40;28.10;;;;;;5068770;28;20074;-65
2022/05/26 04:59:14;;;;;;;45.40;9.25;;;31.40;28.10;;;;;;5068500;28;20480;-64
2022/05/26 05:01:42;;;;;;;39.55;5.93;;;31.40;28.30;;;;;;5052797;28;20151;-66
2022/05/26 05:04:08;;;;;;;24.17;5.70;;;31.30;28.40;;;;;;5085020;28;20072;-65
2022/05/26 05:06:35;;;;;;;28.85;5.05;;;31.30;28.40;;;;;;5065928;28;20126;-66
2022/05/26 05:09:01;;;;;;;23.60;5.13;;;31.20;28.60;;;;;;5064399;28;20738;-67
2022/05/26 05:11:29;;;;;;;23.95;4.88;;;31.20;28.70;;;;;;5067163;28;20111;-67
2022/05/26 05:13:56;;;;;;;33.63;5.18;;;31.10;28.80;;;;;;5066741;28;20633;-65
2022/05/26 05:16:30;;;;;;;31.10;5.93;;;31.10;29.10;;;;;;5037720;28;20068;-66
2022/05/26 05:18:57;;;;;;;21.52;6.05;;;31.00;29.40;;;;;;5047566;28;20081;-65
2022/05/26 05:21:29;;;;;;;25.42;4.95;;;31.00;29.60;;;;;;5065719;28;20074;-66
2022/05/26 05:24:04;;;;;;;24.35;5.53;;;30.80;29.90;;;;;;5052895;28;20526;-66
2022/05/26 05:26:35;;;;;;;18.88;3.92;;;30.80;30.20;;;;;;5053985;28;20485;-66
2022/05/26 05:29:09;;;;;;;19.55;4.03;;;30.70;30.40;;;;;;5060058;28;20071;-65
2022/05/26 05:31:43;;;;;;;19.17;4.63;;;30.60;30.60;;;;;;5061545;28;20083;-67
2022/05/26 05:34:30;;;;;;;15.15;4.10;;;30.60;30.90;;;;;;5085557;28;20118;-66
2022/05/26 05:36:56;;;;;;;17.80;3.25;;;30.50;31.10;;;;;;5061364;28;20151;-67
2022/05/26 05:39:24;;;;;;;19.17;3.30;;;30.40;31.40;;;;;;5060909;28;20084;-67
2022/05/26 05:41:54;;;;;;;17.10;3.83;;;30.40;31.50;;;;;;5058414;28;20069;-67
2022/05/26 05:44:21;;;;;;;18.08;3.67;;;30.40;31.60;;;;;;5061723;28;20094;-66
2022/05/26 05:46:54;;;;;;;20.95;3.90;;;30.30;31.90;;;;;;5060955;28;20086;-65
2022/05/26 05:49:26;;;;;;;21.85;4.22;;;30.20;32.00;;;;;;5062457;28;20072;-66
2022/05/26 05:51:53;;;;;;;23.17;4.32;;;30.20;32.30;;;;;;5061202;28;20084;-66
2022/05/26 05:54:19;;;;;;;31.30;4.57;;;30.10;33.40;;;;;;5057517;28;20084;-65
2022/05/26 05:56:47;;;;;;;26.50;4.20;;;30.00;32.90;;;;;;5056902;28;20072;-66
2022/05/26 05:59:14;;;;;;;21.67;3.95;;;29.90;33.20;;;;;;5062048;28;20657;-66
2022/05/26 06:01:41;;;;;;;15.40;4.50;;;29.90;33.50;;;;;;5062121;28;20163;-66
2022/05/26 06:04:08;;;;;;;23.42;3.65;;;29.80;33.80;;;;;;5061597;28;20072;-66
2022/05/26 06:06:42;;;;;;;19.90;3.85;;;29.70;34.00;;;;;;5057719;28;20108;-66
2022/05/26 06:09:13;;;;;;;19.45;3.70;;;29.70;34.40;;;;;;5060409;28;20088;-64
2022/05/26 06:11:44;;;;;;;21.75;4.07;;;29.60;34.70;;;;;;5059569;28;20114;-65
2022/05/26 06:14:10;;;;;;;20.48;4.45;;;29.60;35.00;;;;;;5046926;28;20092;-66
2022/05/26 06:16:37;;;;;;;20.52;3.70;;;29.50;35.20;;;;;;5060566;28;20102;-65
2022/05/26 06:19:04;;;;;;;19.33;3.95;;;29.40;35.50;;;;;;5057523;28;20076;-66
2022/05/26 06:21:31;;;;;;;20.30;3.42;;;29.20;35.90;;;;;;5055279;28;20072;-67
2022/05/26 06:23:58;;;;;;;15.63;3.47;;;29.20;36.20;;;;;;5057859;28;20071;-66
2022/05/26 06:26:30;;;;;;;23.60;3.95;;;29.10;36.40;;;;;;5056503;28;20072;-65
2022/05/26 06:37:16;;;;;;;20.35;4.00;;;29.00;37.40;;;;;;5059041;28;20132;-66
2022/05/26 06:39:44;;;;;;;25.77;4.30;;;28.90;37.50;;;;;;5058904;28;20072;-66
2022/05/26 06:42:11;;;;;;;17.83;3.78;;;28.80;37.80;;;;;;5062675;28;20080;-67
2022/05/26 06:44:42;;;;;;;12.55;3.42;;;28.80;37.90;;;;;;5055844;28;20076;-68
2022/05/26 06:47:10;;;;;;;16.15;3.65;;;28.70;38.10;;;;;;5057541;28;20068;-66
2022/05/26 06:49:38;;;;;;;20.75;3.65;;;28.60;38.20;;;;;;5060357;28;20072;-65
2022/05/26 06:52:06;;;;;;;22.92;4.03;;;28.40;38.50;;;;;;5057284;28;20439;-66
2022/05/26 06:54:34;;;;;;;16.98;3.67;;;28.50;38.70;;;;;;5059697;28;20489;-67
2022/05/26 06:57:01;;;;;;;21.33;3.50;;;28.40;38.80;;;;;;5058901;28;20068;-67
2022/05/26 06:59:28;;;;;;;20.10;3.92;;;28.40;38.90;;;;;;5060158;28;20079;-67
2022/05/26 07:01:54;;;;;;;18.52;3.67;;;28.40;39.10;;;;;;5057443;28;20072;-65
2022/05/26 07:04:21;;;;;;;32.80;3.70;;;28.30;39.00;;;;;;5051008;28;20068;-67
2022/05/26 07:06:53;;;;;;;21.73;3.47;;;28.30;39.30;;;;;;5059399;28;20072;-66
2022/05/26 07:09:21;;;;;;;21.80;4.28;;;28.30;39.50;;;;;;5058912;28;20095;-66
2022/05/26 07:11:47;;;;;;;24.60;4.00;;;28.20;39.60;;;;;;5058851;28;20195;-66
2022/05/26 07:14:14;;;;;;;16.63;3.33;;;28.10;40.00;;;;;;5060208;28;20088;-66
2022/05/26 07:16:42;;;;;;;15.98;3.33;;;28.10;40.10;;;;;;5036226;28;20505;-67
2022/05/26 07:19:09;;;;;;;21.00;3.85;;;28.00;40.30;;;;;;5059611;28;20073;-66
2022/05/26 07:21:35;;;;;;;19.17;3.90;;;27.90;40.30;;;;;;5042142;28;20080;-66
2022/05/26 07:24:02;;;;;;;15.98;3.30;;;27.90;40.40;;;;;;5056893;28;20085;-68
2022/05/26 07:26:32;;;;;;;29.20;4.60;;;27.80;40.60;;;;;;5059523;28;20076;-65
2022/05/26 07:29:01;;;;;;;18.95;4.25;;;27.80;40.70;;;;;;5060641;28;20072;-64
2022/05/26 07:31:28;;;;;;;20.88;4.10;;;27.80;40.70;;;;;;5059844;28;20163;-64
2022/05/26 07:33:55;;;;;;;19.67;4.18;;;27.70;40.70;;;;;;5057437;28;20575;-65
2022/05/26 07:42:03;;;;;;;22.92;4.60;;;27.50;40.50;;;;;;5056243;28;20206;-64
2022/05/26 07:44:35;;;;;;;20.42;3.90;;;27.50;40.50;;;;;;5050986;28;20111;-64
2022/05/26 07:47:03;;;;;;;28.00;4.30;;;27.40;40.90;;;;;;5036493;28;20430;-64
2022/05/26 07:49:30;;;;;;;30.35;4.05;;;27.40;41.00;;;;;;5065879;28;20572;-65
2022/05/26 07:51:57;;;;;;;12.68;3.33;;;27.40;41.10;;;;;;5058820;28;20213;-64
2022/05/26 07:54:24;;;;;;;17.98;3.70;;;27.40;41.00;;;;;;5059324;28;20083;-64
2022/05/26 07:56:50;;;;;;;29.85;4.40;;;27.30;41.10;;;;;;5058179;28;20064;-64
2022/05/26 07:59:17;;;;;;;21.90;3.85;;;27.30;41.10;;;;;;5064306;28;20432;-64
2022/05/26 08:01:43;;;;;;;18.67;4.13;;;27.30;41.00;;;;;;5064386;28;20137;-64
2022/05/26 08:04:09;;;;;;;18.05;3.88;;;27.30;40.80;;;;;;5051247;28;20159;-64
2022/05/26 08:06:36;;;;;;;14.55;3.95;;;27.30;40.70;;;;;;5046997;28;20121;-64
2022/05/26 08:09:03;;;;;;;24.15;4.18;;;27.30;40.50;;;;;;5063478;28;20110;-64
2022/05/26 08:11:29;;;;;;;23.77;4.97;;;27.30;40.20;;;;;;5062162;28;20122;-65
2022/05/26 08:13:56;;;;;;;27.40;6.28;;;27.30;40.00;;;;;;5062422;28;20580;-64
2022/05/26 08:16:22;;;;;;;35.88;12.70;;;27.20;40.10;;;;;;5061908;28;20076;-64
2022/05/26 08:18:49;;;;;;;24.60;13.52;;;27.20;39.90;;;;;;5060724;28;20083;-65
2022/05/26 08:21:18;;;;;;;38.72;12.23;;;27.20;39.90;;;;;;5060449;28;20125;-65
2022/05/26 08:23:45;;;;;;;22.23;9.95;;;27.30;39.90;;;;;;5064687;28;20426;-65
2022/05/26 08:26:11;;;;;;;19.55;6.00;;;27.20;39.70;;;;;;5062076;28;20107;-64
2022/05/26 08:28:38;;;;;;;24.60;5.40;;;27.20;39.60;;;;;;5059274;28;20085;-65
2022/05/26 08:31:05;;;;;;;17.02;4.28;;;27.20;39.50;;;;;;5059761;28;20072;-66
2022/05/26 08:33:31;;;;;;;19.50;3.67;;;27.20;39.40;;;;;;5060529;28;20100;-65
2022/05/26 08:36:12;;;;;;;19.33;3.40;;;27.20;39.30;;;;;;5061433;28;20406;-65
2022/05/26 08:38:39;;;;;;;15.98;3.15;;;27.20;39.20;;;;;;5058303;28;20154;-66
2022/05/26 08:41:07;;;;;;;17.67;3.70;;;27.10;39.00;;;;;;5061894;28;20071;-65
2022/05/26 08:43:43;;;;;;;14.70;2.60;;;27.20;39.10;;;;;;5062435;28;20114;-66
2022/05/26 08:46:13;;;;;;;;;;;27.20;38.80;;;;;;5061419;28;20074;-65
2022/05/26 08:49:07;;;;;;;11.88;3.33;;;27.10;38.50;;;;;;5058020;28;19956;-65
2022/05/26 08:52:06;;;;;;;17.58;2.88;;;27.10;38.60;;;;;;5057799;28;20071;-66
2022/05/26 08:55:01;;;;;;;7.35;2.45;;;27.10;38.60;;;;;;5064295;28;20145;-68
2022/05/26 08:57:39;;;;;;;19.20;3.35;;;27.00;38.70;;;;;;5076850;28;20095;-65
2022/05/26 09:00:09;;;;;;;12.95;2.72;;;27.00;39.00;;;;;;5062656;28;20064;-66
2022/05/26 09:02:37;;;;;;;10.50;3.10;;;27.10;39.10;;;;;;5055570;28;20078;-65
2022/05/26 09:05:16;;;;;;;18.05;3.28;;;27.00;39.70;;;;;;5056195;28;20092;-67
2022/05/26 09:13:41;;;;;;;13.88;3.47;;;26.80;41.60;;;;;;5059937;28;20110;-65
2022/05/26 09:16:10;;;;;;;16.35;4.00;;;26.80;42.10;;;;;;5055923;28;20099;-65
2022/05/26 09:18:40;;;;;;;14.15;3.22;;;26.80;42.50;;;;;;5057480;28;20157;-66
2022/05/26 09:21:16;;;;;;;13.90;3.15;;;26.80;42.90;;;;;;5058479;28;20092;-67
2022/05/26 09:23:44;;;;;;;13.43;3.35;;;26.80;43.40;;;;;;5058789;28;20072;-67
2022/05/26 09:26:16;;;;;;;21.80;3.78;;;26.80;43.80;;;;;;5058716;28;20083;-66
2022/05/26 09:28:51;;;;;;;15.32;3.70;;;26.70;44.10;;;;;;5060056;28;20492;-66
2022/05/26 09:31:29;;;;;;;20.60;4.30;;;26.70;44.50;;;;;;5057805;28;20072;-64
2022/05/26 09:34:10;;;;;;;16.45;4.18;;;26.70;44.70;;;;;;5062188;28;20111;-68
2022/05/26 09:36:52;;;;;;;20.88;6.07;;;26.70;45.10;;;;;;5058880;28;20083;-66
2022/05/26 09:39:37;;;;;;;15.90;5.13;;;26.60;46.00;;;;;;5064292;28;20109;-66
2022/05/26 09:42:27;;;;;;;20.70;4.82;;;26.50;46.40;;;;;;5044046;28;20115;-66
2022/05/26 09:44:59;;;;;;;18.80;5.22;;;26.40;47.00;;;;;;5046317;28;20095;-67
2022/05/26 09:47:28;;;;;;;22.33;5.00;;;26.30;47.50;;;;;;5057927;28;20115;-67
2022/05/26 09:49:58;;;;;;;16.92;4.43;;;26.10;48.30;;;;;;5060992;28;20088;-67
2022/05/26 09:52:30;;;;;;;16.20;4.22;;;26.00;48.90;;;;;;5057794;28;20533;-66
2022/05/26 09:55:24;;;;;;;12.35;3.38;;;26.00;50.50;;;;;;5057290;28;20096;-69
2022/05/26 09:58:03;;;;;;;13.68;3.53;;;25.90;51.50;;;;;;5060053;28;20076;-68
2022/05/26 10:00:45;;;;;;;10.50;3.08;;;26.00;51.90;;;;;;5060581;28;20072;-66
2022/05/26 10:04:13;;;;;;;18.40;3.35;;;25.80;52.60;;;;;;5059420;28;20073;-66
2022/05/26 10:06:46;;;;;;;12.88;3.05;;;25.80;54.00;;;;;;4977149;28;20232;-66
2022/05/26 10:09:30;;;;;;;8.70;2.78;;;25.60;54.60;;;;;;4966751;28;20586;-68
2022/05/26 10:12:24;;;;;;;12.85;2.67;;;25.60;55.20;;;;;;4964442;28;20148;-67
2022/05/26 10:15:04;;;;;;;12.02;3.17;;;25.40;55.60;;;;;;4986978;28;20109;-66
2022/05/26 10:17:55;;;;;;;10.65;2.85;;;25.20;56.50;;;;;;4984390;28;20180;-66
2022/05/26 10:20:45;;;;;;;12.05;3.33;;;25.10;57.10;;;;;;4983960;28;20179;-67
2022/05/26 10:23:21;;;;;;;12.70;3.20;;;25.00;57.80;;;;;;4963376;28;20090;-66
2022/05/26 10:26:25;;;;;;;12.52;3.15;;;25.00;58.00;;;;;;4966929;28;20076;-65
2022/05/26 10:29:06;;;;;;;15.98;3.47;;;24.80;58.50;;;;;;4985309;28;20086;-66
2022/05/26 10:31:45;;;;;;;17.50;3.60;;;24.70;59.40;;;;;;4966061;28;20459;-66
2022/05/26 10:34:24;;;;;;;16.17;3.72;;;24.50;60.20;;;;;;4979457;28;20094;-66
2022/05/26 10:37:20;;;;;;;16.00;4.00;;;24.50;62.90;;;;;;4983072;28;20082;-67
2022/05/26 10:39:50;;;;;;;22.05;3.83;;;24.50;63.90;;;;;;4972012;28;20115;-66
2022/05/26 10:42:30;;;;;;;15.38;3.40;;;24.30;66.50;;;;;;5059292;28;20786;-66
2022/05/26 10:45:17;;;;;;;16.50;4.20;;;24.10;68.50;;;;;;5060399;28;20191;-67
2022/05/26 10:47:43;;;;;;;10.70;3.38;;;24.10;69.20;;;;;;5057078;28;20124;-67
2022/05/26 10:50:09;;;;;;;13.20;3.58;;;24.10;70.00;;;;;;5055908;28;20161;-67
2022/05/26 10:52:58;;;;;;;13.93;3.92;;;24.10;70.30;;;;;;5060681;28;20080;-68
2022/05/26 10:55:49;;;;;;;16.35;3.90;;;24.10;70.70;;;;;;5061876;28;20091;-67
2022/05/26 10:58:32;;;;;;;15.98;3.72;;;23.90;71.30;;;;;;5059307;28;20077;-67
2022/05/26 11:01:05;;;;;;;15.05;3.70;;;23.80;71.60;;;;;;5055859;28;20531;-66
2022/05/26 11:03:40;;;;;;;13.90;3.10;;;23.80;72.10;;;;;;5058271;28;20097;-68
2022/05/26 11:06:26;;;;;;;13.98;3.35;;;23.80;72.40;;;;;;5041112;28;20097;-66
2022/05/26 11:09:07;;;;;;;15.13;3.22;;;23.70;73.00;;;;;;5061383;28;20084;-67
2022/05/26 11:11:36;;;;;;;16.45;3.95;;;23.60;73.60;;;;;;5059448;28;20140;-66
2022/05/26 11:17:21;;;;;;;14.25;3.63;;;23.60;74.30;;;;;;5046227;28;20093;-66
2022/05/26 11:20:01;;;;;;;11.80;3.72;;;23.40;75.50;;;;;;5062991;28;20172;-66
2022/05/26 11:22:28;;;;;;;15.80;3.80;;;23.30;76.70;;;;;;5045868;28;20070;-67
2022/05/26 11:24:57;;;;;;;14.80;4.28;;;23.30;77.20;;;;;;5058949;28;20168;-68
2022/05/26 11:27:35;;;;;;;12.95;4.38;;;23.40;77.40;;;;;;5041122;28;20097;-68
2022/05/26 11:36:14;;;;;;;16.58;4.97;;;23.30;77.40;;;;;;5062938;28;20222;-67
2022/05/26 11:38:47;;;;;;;16.67;5.43;;;23.30;76.80;;;;;;5063042;28;20069;-67
2022/05/26 11:41:35;;;;;;;14.88;4.93;;;23.20;76.30;;;;;;5047442;28;20066;-67
2022/05/26 11:44:12;;;;;;;18.00;5.00;;;23.30;75.90;;;;;;5058811;28;20077;-66
2022/05/26 11:46:44;;;;;;;14.65;4.63;;;23.20;74.60;;;;;;5046560;28;20085;-66
2022/05/26 11:49:31;;;;;;;17.25;4.47;;;23.20;73.00;;;;;;5059814;28;20073;-66
2022/05/26 11:51:57;;;;;;;;;;;23.20;72.40;;;;;;5066492;28;20082;-65
2022/05/26 11:55:03;;;;;;;12.90;4.38;;;23.20;71.60;;;;;;5066470;28;19984;-65
2022/05/26 11:57:35;;;;;;;15.48;4.20;;;23.20;69.90;;;;;;5062774;28;20089;-65
2022/05/26 12:00:21;;;;;;;12.65;4.35;;;23.20;68.80;;;;;;5062700;28;20165;-64
2022/05/26 12:02:51;;;;;;;13.10;4.70;;;23.20;67.30;;;;;;5062418;28;20089;-65
2022/05/26 12:05:29;;;;;;;12.95;4.57;;;23.20;66.40;;;;;;5042617;28;20100;-65
2022/05/26 12:08:23;;;;;;;12.40;3.97;;;23.20;65.20;;;;;;5060368;28;20081;-66
2022/05/26 12:10:56;;;;;;;13.48;4.32;;;23.20;64.60;;;;;;5060241;28;20116;-65
2022/05/26 12:13:27;;;;;;;13.02;4.30;;;23.20;64.00;;;;;;5075045;28;20081;-66
2022/05/26 12:16:11;;;;;;;13.95;3.70;;;23.30;63.10;;;;;;5063043;28;20089;-65
2022/05/26 12:19:04;;;;;;;12.80;3.40;;;23.30;62.20;;;;;;5058274;28;20071;-65
2022/05/26 12:21:31;;;;;;;14.32;3.20;;;23.30;61.60;;;;;;5059548;28;20095;-65
2022/05/26 12:24:18;;;;;;;11.20;2.85;;;23.30;61.50;;;;;;5061886;28;20077;-64
2022/05/26 12:26:52;;;;;;;13.35;3.20;;;23.30;60.60;;;;;;5062266;28;20076;-67
2022/05/26 12:29:49;;;;;;;10.10;3.15;;;23.30;59.90;;;;;;5058343;28;20085;-68
2022/05/26 12:32:26;;;;;;;16.15;3.45;;;23.30;59.40;;;;;;5056766;28;20543;-66
2022/05/26 12:34:52;;;;;;;;;;;23.20;59.30;;;;;;5060321;28;20150;-66
2022/05/26 12:37:47;;;;;;;19.35;3.95;;;23.20;58.80;;;;;;5061031;28;20365;-65
2022/05/26 12:40:57;;;;;;;16.58;3.40;;;23.20;58.30;;;;;;5051313;28;20078;-65
2022/05/26 12:43:27;;;;;;;12.60;3.42;;;23.20;57.80;;;;;;5015306;28;20159;-65
2022/05/26 12:46:28;;;;;;;17.27;3.13;;;23.20;57.40;;;;;;5060486;28;20073;-65
2022/05/26 12:49:28;;;;;;;14.40;3.03;;;23.10;56.90;;;;;;5062704;28;20118;-65
2022/05/26 12:52:12;;;;;;;32.80;3.90;;;23.20;56.50;;;;;;5060647;28;20114;-67
2022/05/26 12:54:58;;;;;;;20.73;3.45;;;23.20;56.40;;;;;;5046652;28;20143;-66
2022/05/26 12:57:26;;;;;;;22.52;3.88;;;23.10;56.20;;;;;;5043915;28;20171;-66
2022/05/26 13:00:31;;;;;;;16.30;3.17;;;23.10;56.20;;;;;;5067566;28;20451;-66
2022/05/26 13:03:20;;;;;;;14.38;3.50;;;23.10;56.20;;;;;;5060947;28;20099;-66
2022/05/26 13:06:10;;;;;;;17.73;4.03;;;23.10;56.40;;;;;;5059228;28;20101;-66
2022/05/26 13:08:58;;;;;;;14.45;4.00;;;23.10;56.60;;;;;;5058808;28;20089;-67
2022/05/26 13:11:32;;;;;;;26.50;5.13;;;23.10;56.70;;;;;;5058562;28;20492;-66
2022/05/26 13:14:23;;;;;;;29.27;4.95;;;23.10;56.70;;;;;;5054420;28;20250;-66
2022/05/26 13:16:56;;;;;;;23.35;5.90;;;23.20;57.00;;;;;;5060238;28;20080;-66
2022/05/26 13:19:23;;;;;;;24.10;4.40;;;23.10;57.10;;;;;;5060207;28;20108;-67
2022/05/26 13:21:52;;;;;;;25.15;5.35;;;23.20;57.20;;;;;;5055546;28;20120;-66
2022/05/26 13:24:28;;;;;;;25.95;5.68;;;23.30;57.10;;;;;;5059414;28;20099;-67
2022/05/26 13:27:04;;;;;;;33.28;6.78;;;23.30;57.30;;;;;;5059085;28;20493;-65
2022/05/26 13:29:34;;;;;;;24.92;5.40;;;23.30;57.40;;;;;;5066350;28;20126;-65
2022/05/26 13:34:52;;;;;;;20.90;5.40;;;23.40;57.50;;;;;;5050065;28;20104;-66
2022/05/26 13:37:25;;;;;;;25.40;5.60;;;23.30;57.90;;;;;;5055064;28;20852;-65
2022/05/26 13:40:16;;;;;;;27.23;5.93;;;23.40;57.60;;;;;;5059710;28;20081;-65
2022/05/26 13:42:51;;;;;;;32.65;5.72;;;23.50;57.80;;;;;;5065056;28;20105;-64
2022/05/26 13:45:31;;;;;;;30.77;6.70;;;23.50;57.80;;;;;;5052013;28;20085;-65
2022/05/26 13:48:30;;;;;;;24.98;5.10;;;23.60;57.60;;;;;;5054152;28;20203;-65
2022/05/26 13:51:20;;;;;;;31.13;5.53;;;23.70;57.40;;;;;;5027411;28;20088;-65
2022/05/26 13:53:49;;;;;;;30.17;6.28;;;23.80;57.40;;;;;;5029462;28;20195;-65